createdAt,value
2019-02-21T00:00:24.437Z,4.99
2019-02-21T00:01:22.330Z,4.78
2019-02-21T00:02:22.555Z,4.80
2019-02-21T00:03:22.782Z,4.86
2019-02-21T00:04:23.000Z,4.78
2019-02-21T00:05:23.225Z,4.87
2019-02-21T00:06:23.447Z,4.89
2019-02-21T00:07:23.672Z,4.84
2019-02-21T00:08:23.891Z,4.82
2019-02-21T00:09:24.117Z,4.75
2019-02-21T00:10:24.339Z,4.90
2019-02-21T00:11:24.565Z,4.70
2019-02-21T00:12:24.852Z,4.73
2019-02-21T00:13:25.014Z,4.84
2019-02-21T00:14:25.238Z,4.87
2019-02-21T00:15:25.462Z,4.92
2019-02-21T00:16:25.688Z,4.84
2019-02-21T00:17:25.899Z,4.96
2019-02-21T00:18:26.126Z,4.93
2019-02-21T00:19:26.348Z,4.99
2019-02-21T00:20:26.573Z,5.05
2019-02-21T00:21:26.812Z,5.04
2019-02-21T00:22:27.014Z,5.14
2019-02-21T00:23:27.238Z,5.17
2019-02-21T00:24:27.460Z,5.18
2019-02-21T00:25:27.685Z,5.02
2019-02-21T00:26:27.909Z,4.99
2019-02-21T00:27:28.129Z,4.93
2019-02-21T00:28:28.356Z,4.89
2019-02-21T00:29:28.580Z,4.89
2019-02-21T00:30:35.206Z,4.87
2019-02-21T00:31:29.026Z,4.90
2019-02-21T00:32:29.248Z,4.92
2019-02-21T00:33:29.470Z,4.99
2019-02-21T00:34:29.695Z,4.94
2019-02-21T00:35:29.915Z,4.99
2019-02-21T00:36:30.140Z,4.92
2019-02-21T00:37:30.365Z,4.80
2019-02-21T00:38:30.588Z,4.87
2019-02-21T00:39:30.810Z,4.90
2019-02-21T00:40:31.038Z,4.94
2019-02-21T00:41:31.260Z,4.90
2019-02-21T00:42:31.482Z,4.90
2019-02-21T00:43:31.706Z,4.89
2019-02-21T00:44:31.928Z,4.87
2019-02-21T00:45:32.157Z,4.78
2019-02-21T00:46:32.378Z,4.74
2019-02-21T00:47:32.598Z,4.74
2019-02-21T00:48:32.823Z,4.71
2019-02-21T00:49:33.045Z,4.67
2019-02-21T00:50:33.268Z,4.60
2019-02-21T00:51:33.491Z,4.63
2019-02-21T00:52:33.712Z,4.53
2019-02-21T00:53:33.935Z,4.58
2019-02-21T00:54:34.156Z,4.60
2019-02-21T00:55:34.379Z,4.59
2019-02-21T00:56:34.602Z,4.71
2019-02-21T00:57:34.827Z,4.70
2019-02-21T00:58:35.048Z,4.73
2019-02-21T00:59:35.268Z,4.73
2019-02-21T01:00:45.719Z,4.71
2019-02-21T01:01:35.714Z,4.71
2019-02-21T01:02:35.938Z,4.63
2019-02-21T01:03:36.160Z,4.75
2019-02-21T01:04:36.385Z,4.84
2019-02-21T01:05:36.606Z,4.68
2019-02-21T01:06:36.831Z,4.89
2019-02-21T01:07:37.056Z,4.66
2019-02-21T01:08:37.283Z,4.59
2019-02-21T01:09:37.501Z,4.40
2019-02-21T01:10:37.724Z,4.32
2019-02-21T01:11:37.947Z,4.20
2019-02-21T01:12:38.170Z,4.28
2019-02-21T01:13:38.409Z,4.40
2019-02-21T01:14:38.621Z,4.35
2019-02-21T01:15:38.841Z,4.26
2019-02-21T01:16:39.061Z,4.22
2019-02-21T01:17:39.282Z,4.31
2019-02-21T01:18:39.504Z,4.34
2019-02-21T01:19:39.728Z,4.32
2019-02-21T01:20:39.954Z,4.31
2019-02-21T01:21:40.174Z,4.42
2019-02-21T01:22:40.395Z,4.45
2019-02-21T01:23:40.670Z,4.49
2019-02-21T01:24:40.843Z,4.40
2019-02-21T01:25:41.062Z,4.42
2019-02-21T01:26:41.285Z,4.41
2019-02-21T01:27:41.509Z,4.41
2019-02-21T01:28:41.730Z,4.30
2019-02-21T01:29:41.953Z,4.30
2019-02-21T01:30:42.175Z,4.23
2019-02-21T01:31:42.401Z,4.13
2019-02-21T01:32:42.621Z,4.10
2019-02-21T01:33:42.872Z,3.94
2019-02-21T01:34:43.092Z,4.14
2019-02-21T01:35:43.310Z,4.06
2019-02-21T01:36:43.536Z,3.94
2019-02-21T01:37:43.758Z,3.94
2019-02-21T01:38:44.017Z,3.86
2019-02-21T01:39:44.202Z,3.86
2019-02-21T01:40:44.423Z,3.95
2019-02-21T01:41:44.652Z,4.04
2019-02-21T01:42:44.868Z,3.92
2019-02-21T01:43:45.090Z,3.88
2019-02-21T01:44:45.314Z,3.86
2019-02-21T01:45:45.535Z,3.86
2019-02-21T01:46:45.755Z,3.88
2019-02-21T01:47:45.977Z,4.02
2019-02-21T01:48:46.199Z,3.95
2019-02-21T01:49:46.423Z,4.10
2019-02-21T01:50:46.645Z,4.06
2019-02-21T01:51:46.868Z,4.05
2019-02-21T01:52:47.093Z,4.05
2019-02-21T01:53:47.314Z,4.10
2019-02-21T01:54:47.535Z,4.12
2019-02-21T01:55:47.756Z,4.12
2019-02-21T01:56:47.982Z,4.16
2019-02-21T01:57:48.201Z,4.05
2019-02-21T01:58:48.422Z,4.10
2019-02-21T01:59:48.641Z,4.10
2019-02-21T02:00:48.873Z,3.94
2019-02-21T02:01:49.100Z,4.10
2019-02-21T02:02:49.322Z,3.92
2019-02-21T02:03:49.546Z,4.19
2019-02-21T02:04:49.764Z,4.01
2019-02-21T02:05:49.986Z,4.08
2019-02-21T02:06:50.208Z,3.99
2019-02-21T02:07:50.430Z,3.98
2019-02-21T02:08:50.655Z,3.92
2019-02-21T02:09:50.876Z,3.98
2019-02-21T02:10:51.098Z,3.91
2019-02-21T02:11:51.317Z,3.84
2019-02-21T02:12:51.542Z,3.73
2019-02-21T02:13:51.764Z,3.81
2019-02-21T02:14:51.983Z,3.86
2019-02-21T02:15:52.208Z,3.78
2019-02-21T02:16:52.424Z,3.66
2019-02-21T02:17:52.646Z,3.56
2019-02-21T02:18:52.869Z,3.68
2019-02-21T02:19:53.092Z,3.62
2019-02-21T02:20:53.316Z,3.70
2019-02-21T02:21:53.537Z,3.65
2019-02-21T02:22:53.781Z,3.58
2019-02-21T02:23:53.976Z,3.55
2019-02-21T02:24:54.202Z,3.70
2019-02-21T02:25:54.424Z,3.86
2019-02-21T02:26:54.645Z,3.86
2019-02-21T02:27:54.866Z,3.86
2019-02-21T02:28:55.090Z,3.91
2019-02-21T02:29:55.313Z,3.83
2019-02-21T02:30:55.536Z,3.80
2019-02-21T02:31:55.759Z,3.83
2019-02-21T02:32:55.973Z,3.81
2019-02-21T02:33:56.202Z,3.88
2019-02-21T02:34:56.424Z,3.84
2019-02-21T02:35:56.643Z,3.77
2019-02-21T02:36:56.869Z,3.80
2019-02-21T02:37:57.088Z,3.76
2019-02-21T02:38:57.308Z,3.81
2019-02-21T02:39:57.534Z,3.86
2019-02-21T02:40:57.754Z,3.74
2019-02-21T02:41:57.972Z,3.87
2019-02-21T02:42:58.189Z,3.91
2019-02-21T02:43:58.416Z,4.01
2019-02-21T02:44:58.637Z,3.94
2019-02-21T02:45:58.860Z,3.95
2019-02-21T02:46:59.080Z,3.86
2019-02-21T02:47:59.299Z,3.86
2019-02-21T02:48:59.522Z,3.83
2019-02-21T02:49:59.743Z,3.74
2019-02-21T02:50:59.963Z,3.84
2019-02-21T02:52:00.198Z,3.84
2019-02-21T02:53:00.523Z,3.84
2019-02-21T02:54:00.625Z,3.84
2019-02-21T02:55:00.848Z,3.84
2019-02-21T02:56:01.075Z,3.78
2019-02-21T02:57:01.292Z,3.83
2019-02-21T02:58:01.513Z,3.84
2019-02-21T02:59:01.734Z,3.80
2019-02-21T03:00:01.958Z,3.77
2019-02-21T03:01:02.186Z,3.73
2019-02-21T03:02:02.442Z,3.83
2019-02-21T03:03:02.664Z,3.84
2019-02-21T03:04:02.913Z,3.87
2019-02-21T03:05:03.113Z,3.84
2019-02-21T03:06:03.341Z,3.84
2019-02-21T03:07:03.555Z,3.76
2019-02-21T03:08:03.785Z,3.81
2019-02-21T03:09:04.002Z,3.87
2019-02-21T03:10:04.224Z,3.83
2019-02-21T03:11:04.449Z,3.84
2019-02-21T03:12:04.694Z,3.91
2019-02-21T03:13:04.889Z,3.87
2019-02-21T03:14:05.107Z,3.84
2019-02-21T03:15:05.331Z,3.87
2019-02-21T03:16:05.569Z,3.88
2019-02-21T03:17:05.776Z,4.02
2019-02-21T03:18:05.997Z,4.05
2019-02-21T03:19:06.254Z,4.05
2019-02-21T03:20:06.445Z,4.13
2019-02-21T03:21:06.666Z,4.20
2019-02-21T03:22:06.887Z,4.12
2019-02-21T03:23:07.113Z,4.12
2019-02-21T03:24:07.328Z,4.10
2019-02-21T03:25:07.556Z,4.20
2019-02-21T03:26:07.774Z,4.23
2019-02-21T03:27:07.994Z,4.13
2019-02-21T03:28:08.214Z,4.13
2019-02-21T03:29:08.437Z,4.13
2019-02-21T03:30:12.249Z,4.13
2019-02-21T03:31:08.889Z,4.17
2019-02-21T03:32:09.101Z,4.14
2019-02-21T03:33:09.317Z,4.16
2019-02-21T03:34:09.549Z,4.13
2019-02-21T03:35:09.763Z,4.16
2019-02-21T03:36:09.987Z,4.17
2019-02-21T03:37:10.213Z,4.23
2019-02-21T03:38:10.435Z,4.17
2019-02-21T03:39:10.665Z,4.08
2019-02-21T03:40:10.879Z,3.96
2019-02-21T03:41:11.098Z,3.94
2019-02-21T03:42:11.320Z,3.94
2019-02-21T03:43:11.542Z,3.88
2019-02-21T03:44:11.763Z,4.05
2019-02-21T03:45:11.992Z,4.08
2019-02-21T03:46:12.207Z,4.22
2019-02-21T03:47:12.430Z,4.26
2019-02-21T03:48:12.651Z,4.28
2019-02-21T03:49:12.874Z,4.31
2019-02-21T03:50:13.096Z,4.30
2019-02-21T03:51:13.319Z,4.31
2019-02-21T03:52:13.539Z,4.31
2019-02-21T03:53:13.760Z,4.23
2019-02-21T03:54:13.983Z,4.32
2019-02-21T03:55:14.212Z,4.23
2019-02-21T03:56:14.430Z,4.16
2019-02-21T03:57:14.655Z,4.17
2019-02-21T03:58:14.873Z,4.05
2019-02-21T03:59:15.109Z,3.95
2019-02-21T04:00:15.779Z,3.86
2019-02-21T04:01:15.501Z,3.66
2019-02-21T04:02:15.727Z,3.78
2019-02-21T04:03:15.945Z,3.69
2019-02-21T04:04:16.168Z,3.74
2019-02-21T04:05:16.389Z,3.86
2019-02-21T04:06:16.610Z,3.94
2019-02-21T04:07:16.832Z,3.96
2019-02-21T04:08:17.054Z,4.02
2019-02-21T04:09:17.282Z,4.13
2019-02-21T04:10:17.505Z,4.08
2019-02-21T04:11:17.723Z,4.12
2019-02-21T04:12:17.948Z,4.13
2019-02-21T04:13:18.168Z,4.01
2019-02-21T04:14:20.799Z,4.05
2019-02-21T04:15:18.611Z,3.98
2019-02-21T04:16:18.831Z,3.92
2019-02-21T04:17:19.058Z,4.01
2019-02-21T04:18:19.276Z,3.94
2019-02-21T04:19:19.516Z,3.83
2019-02-21T04:20:19.725Z,3.56
2019-02-21T04:21:19.947Z,3.63
2019-02-21T04:22:20.167Z,3.58
2019-02-21T04:23:20.433Z,3.53
2019-02-21T04:24:20.608Z,3.53
2019-02-21T04:25:20.829Z,3.47
2019-02-21T04:26:21.050Z,3.50
2019-02-21T04:27:21.275Z,3.51
2019-02-21T04:28:21.499Z,3.42
2019-02-21T04:29:21.721Z,3.47
2019-02-21T04:30:21.943Z,3.62
2019-02-21T04:31:22.174Z,3.58
2019-02-21T04:32:22.393Z,3.63
2019-02-21T04:33:22.614Z,3.81
2019-02-21T04:34:22.837Z,3.69
2019-02-21T04:35:23.062Z,3.60
2019-02-21T04:36:23.719Z,3.60
2019-02-21T04:37:23.513Z,3.60
2019-02-21T04:38:23.730Z,3.56
2019-02-21T04:39:23.951Z,3.56
2019-02-21T04:40:24.325Z,3.55
2019-02-21T04:41:24.397Z,3.50
2019-02-21T04:42:24.620Z,3.66
2019-02-21T04:43:24.843Z,3.58
2019-02-21T04:44:25.073Z,3.77
2019-02-21T04:45:25.292Z,3.74
2019-02-21T04:46:25.510Z,3.86
2019-02-21T04:47:25.736Z,3.80
2019-02-21T04:48:25.956Z,3.83
2019-02-21T04:49:26.181Z,3.68
2019-02-21T04:50:26.410Z,3.63
2019-02-21T04:51:26.621Z,3.73
2019-02-21T04:52:26.844Z,3.73
2019-02-21T04:53:27.087Z,3.69
2019-02-21T04:54:27.306Z,3.62
2019-02-21T04:55:27.536Z,3.63
2019-02-21T04:56:27.748Z,3.58
2019-02-21T04:57:27.989Z,3.66
2019-02-21T04:58:28.193Z,3.66
2019-02-21T04:59:28.419Z,3.50
2019-02-21T05:00:28.639Z,3.56
2019-02-21T05:01:28.863Z,3.51
2019-02-21T05:02:29.800Z,3.47
2019-02-21T05:03:29.308Z,3.51
2019-02-21T05:04:29.529Z,3.37
2019-02-21T05:05:29.754Z,3.25
2019-02-21T05:06:29.976Z,3.25
2019-02-21T05:07:30.197Z,3.36
2019-02-21T05:08:30.418Z,3.36
2019-02-21T05:09:30.641Z,3.47
2019-02-21T05:10:30.863Z,3.40
2019-02-21T05:11:31.085Z,3.31
2019-02-21T05:12:31.308Z,3.42
2019-02-21T05:13:33.657Z,3.47
2019-02-21T05:14:31.753Z,3.36
2019-02-21T05:15:31.965Z,3.13
2019-02-21T05:16:32.190Z,3.16
2019-02-21T05:17:32.413Z,2.97
2019-02-21T05:18:32.637Z,3.08
2019-02-21T05:19:32.857Z,3.03
2019-02-21T05:20:33.081Z,2.97
2019-02-21T05:21:33.307Z,2.92
2019-02-21T05:22:33.525Z,2.68
2019-02-21T05:23:36.603Z,2.69
2019-02-21T05:24:33.965Z,2.65
2019-02-21T05:25:34.191Z,2.65
2019-02-21T05:26:34.411Z,2.65
2019-02-21T05:27:34.635Z,2.71
2019-02-21T05:28:34.853Z,2.68
2019-02-21T05:29:35.076Z,2.74
2019-02-21T05:30:36.330Z,2.61
2019-02-21T05:31:35.519Z,2.61
2019-02-21T05:32:41.072Z,2.47
2019-02-21T05:33:35.968Z,2.36
2019-02-21T05:34:36.187Z,2.39
2019-02-21T05:35:36.408Z,2.43
2019-02-21T05:36:36.706Z,2.39
2019-02-21T05:37:36.851Z,2.46
2019-02-21T05:38:37.073Z,2.49
2019-02-21T05:39:37.300Z,2.64
2019-02-21T05:40:37.519Z,2.67
2019-02-21T05:41:37.745Z,2.68
2019-02-21T05:42:37.966Z,2.62
2019-02-21T05:43:38.189Z,2.87
2019-02-21T05:44:38.410Z,2.80
2019-02-21T05:45:38.627Z,2.92
2019-02-21T05:46:38.853Z,2.89
2019-02-21T05:47:39.074Z,2.85
2019-02-21T05:48:40.327Z,2.89
2019-02-21T05:49:39.522Z,2.85
2019-02-21T05:50:39.743Z,2.89
2019-02-21T05:51:39.964Z,2.92
2019-02-21T05:52:40.186Z,2.82
2019-02-21T05:53:40.406Z,2.87
2019-02-21T05:54:40.623Z,2.87
2019-02-21T05:55:40.845Z,2.89
2019-02-21T05:56:41.067Z,2.83
2019-02-21T05:57:41.289Z,2.86
2019-02-21T05:58:41.512Z,2.80
2019-02-21T05:59:41.736Z,2.77
2019-02-21T06:00:42.050Z,2.62
2019-02-21T06:01:42.186Z,2.64
2019-02-21T06:02:53.107Z,2.68
2019-02-21T06:03:42.629Z,2.71
2019-02-21T06:04:42.845Z,2.80
2019-02-21T06:05:43.076Z,2.74
2019-02-21T06:06:43.318Z,2.74
2019-02-21T06:07:43.513Z,2.71
2019-02-21T06:08:44.217Z,2.64
2019-02-21T06:09:43.937Z,2.72
2019-02-21T06:10:44.156Z,2.62
2019-02-21T06:11:44.375Z,2.71
2019-02-21T06:12:44.599Z,2.65
2019-02-21T06:13:44.870Z,2.50
2019-02-21T06:14:45.041Z,2.68
2019-02-21T06:15:45.263Z,2.68
2019-02-21T06:16:45.485Z,2.71
2019-02-21T06:17:45.709Z,2.77
2019-02-21T06:18:45.994Z,2.80
2019-02-21T06:19:48.060Z,2.71
2019-02-21T06:20:46.430Z,2.79
2019-02-21T06:21:46.659Z,2.80
2019-02-21T06:22:46.882Z,2.77
2019-02-21T06:23:49.106Z,2.87
2019-02-21T06:24:47.320Z,2.89
2019-02-21T06:25:51.995Z,2.89
2019-02-21T06:26:47.763Z,2.75
2019-02-21T06:27:47.986Z,2.85
2019-02-21T06:28:48.207Z,2.86
2019-02-21T06:29:48.427Z,2.85
2019-02-21T06:30:48.649Z,2.87
2019-02-21T06:31:48.872Z,2.82
2019-02-21T06:32:49.095Z,2.77
2019-02-21T06:33:49.643Z,2.82
2019-02-21T06:34:52.166Z,2.83
2019-02-21T06:35:49.754Z,2.92
2019-02-21T06:36:49.976Z,2.90
2019-02-21T06:37:50.196Z,2.98
2019-02-21T06:38:50.417Z,3.00
2019-02-21T06:39:50.638Z,3.01
2019-02-21T06:40:50.865Z,2.92
2019-02-21T06:41:59.148Z,2.95
2019-02-21T06:42:51.385Z,2.93
2019-02-21T06:43:52.754Z,2.95
2019-02-21T06:44:51.749Z,2.90
2019-02-21T06:45:51.968Z,2.87
2019-02-21T06:46:52.211Z,3.00
2019-02-21T06:47:52.409Z,2.83
2019-02-21T06:48:52.632Z,2.92
2019-02-21T06:49:52.852Z,2.87
2019-02-21T06:50:53.080Z,2.95
2019-02-21T06:51:53.294Z,2.82
2019-02-21T06:52:53.518Z,2.97
2019-02-21T06:53:53.740Z,3.05
2019-02-21T06:54:53.961Z,3.10
2019-02-21T06:55:54.182Z,3.14
2019-02-21T06:56:54.409Z,3.16
2019-02-21T06:57:54.630Z,3.40
2019-02-21T06:58:54.850Z,3.36
2019-02-21T06:59:55.073Z,3.51
2019-02-21T07:00:55.296Z,3.45
2019-02-21T07:01:55.526Z,3.32
2019-02-21T07:02:55.740Z,3.36
2019-02-21T07:03:55.973Z,3.44
2019-02-21T07:04:56.758Z,3.50
2019-02-21T07:05:56.409Z,3.60
2019-02-21T07:06:56.937Z,3.63
2019-02-21T07:07:56.855Z,3.78
2019-02-21T07:08:57.077Z,3.91
2019-02-21T07:09:57.300Z,3.86
2019-02-21T07:11:05.892Z,3.80
2019-02-21T07:11:57.745Z,3.87
2019-02-21T07:12:57.967Z,3.96
2019-02-21T07:13:58.190Z,4.01
2019-02-21T07:14:58.412Z,3.91
2019-02-21T07:15:58.725Z,3.84
2019-02-21T07:16:58.859Z,3.73
2019-02-21T07:17:59.081Z,3.91
2019-02-21T07:18:59.304Z,4.10
2019-02-21T07:19:59.526Z,4.13
2019-02-21T07:20:59.748Z,4.30
2019-02-21T07:21:59.987Z,4.34
2019-02-21T07:23:00.192Z,4.34
2019-02-21T07:24:00.414Z,4.34
2019-02-21T07:25:00.637Z,4.45
2019-02-21T07:26:00.860Z,4.41
2019-02-21T07:27:01.084Z,4.26
2019-02-21T07:28:11.259Z,4.14
2019-02-21T07:29:01.528Z,4.17
2019-02-21T07:30:01.753Z,4.24
2019-02-21T07:31:01.977Z,4.31
2019-02-21T07:32:02.196Z,4.16
2019-02-21T07:33:02.418Z,4.12
2019-02-21T07:34:02.639Z,4.08
2019-02-21T07:35:02.866Z,4.26
2019-02-21T07:36:03.092Z,4.31
2019-02-21T07:37:03.316Z,4.30
2019-02-21T07:38:03.532Z,4.41
2019-02-21T07:39:16.517Z,4.45
2019-02-21T07:40:03.974Z,4.41
2019-02-21T07:41:04.282Z,4.53
2019-02-21T07:42:04.423Z,4.56
2019-02-21T07:43:04.649Z,4.58
2019-02-21T07:44:12.200Z,4.71
2019-02-21T07:45:05.128Z,4.62
2019-02-21T07:46:06.940Z,4.70
2019-02-21T07:47:05.537Z,4.74
2019-02-21T07:48:05.759Z,4.84
2019-02-21T07:49:05.985Z,4.80
2019-02-21T07:50:06.207Z,4.67
2019-02-21T07:51:06.478Z,4.56
2019-02-21T07:52:06.655Z,4.59
2019-02-21T07:53:06.879Z,4.52
2019-02-21T07:54:07.105Z,4.66
2019-02-21T07:55:07.311Z,4.71
2019-02-21T07:56:07.534Z,4.63
2019-02-21T07:57:08.631Z,4.66
2019-02-21T07:58:07.982Z,4.50
2019-02-21T07:59:08.202Z,4.48
2019-02-21T08:00:08.449Z,4.41
2019-02-21T08:01:08.647Z,4.44
2019-02-21T08:02:08.868Z,4.30
2019-02-21T08:03:09.352Z,4.26
2019-02-21T08:04:09.313Z,4.45
2019-02-21T08:05:09.539Z,4.55
2019-02-21T08:06:09.758Z,4.60
2019-02-21T08:07:09.985Z,4.56
2019-02-21T08:08:10.211Z,4.50
2019-02-21T08:09:10.461Z,4.58
2019-02-21T08:10:10.658Z,4.67
2019-02-21T08:11:10.883Z,4.73
2019-02-21T08:12:11.105Z,4.77
2019-02-21T08:13:11.334Z,4.96
2019-02-21T08:14:11.558Z,5.02
2019-02-21T08:15:12.051Z,5.04
2019-02-21T08:16:12.601Z,5.12
2019-02-21T08:17:12.228Z,5.05
2019-02-21T08:18:12.457Z,5.17
2019-02-21T08:19:12.673Z,5.20
2019-02-21T08:20:12.894Z,5.30
2019-02-21T08:21:13.114Z,5.33
2019-02-21T08:22:13.338Z,5.33
2019-02-21T08:23:13.565Z,5.02
2019-02-21T08:24:13.785Z,5.14
2019-02-21T08:25:14.009Z,5.23
2019-02-21T08:26:14.233Z,5.12
2019-02-21T08:27:14.454Z,5.32
2019-02-21T08:28:14.681Z,5.33
2019-02-21T08:29:14.903Z,5.33
2019-02-21T08:30:18.148Z,5.29
2019-02-21T08:31:15.388Z,5.36
2019-02-21T08:32:15.608Z,5.46
2019-02-21T08:33:15.827Z,5.64
2019-02-21T08:34:16.049Z,5.66
2019-02-21T08:35:16.273Z,5.79
2019-02-21T08:36:16.497Z,5.83
2019-02-21T08:37:16.720Z,5.90
2019-02-21T08:38:16.946Z,5.97
2019-02-21T08:39:17.170Z,5.84
2019-02-21T08:40:17.389Z,5.98
2019-02-21T08:41:17.614Z,6.04
2019-02-21T08:42:17.836Z,6.07
2019-02-21T08:43:18.058Z,6.04
2019-02-21T08:44:18.282Z,5.75
2019-02-21T08:45:18.509Z,5.76
2019-02-21T08:46:18.735Z,5.68
2019-02-21T08:47:18.957Z,5.80
2019-02-21T08:48:19.193Z,5.84
2019-02-21T08:49:19.406Z,5.91
2019-02-21T08:50:22.086Z,5.75
2019-02-21T08:51:19.854Z,5.75
2019-02-21T08:52:20.075Z,5.76
2019-02-21T08:53:20.298Z,5.73
2019-02-21T08:54:20.523Z,5.84
2019-02-21T08:55:20.747Z,5.86
2019-02-21T08:56:20.971Z,6.05
2019-02-21T08:57:21.486Z,6.16
2019-02-21T08:58:21.421Z,6.14
2019-02-21T08:59:21.650Z,6.17
2019-02-21T09:00:21.867Z,6.24
2019-02-21T09:01:22.093Z,6.36
2019-02-21T09:02:22.318Z,6.41
2019-02-21T09:03:22.540Z,6.49
2019-02-21T09:04:27.569Z,6.26
2019-02-21T09:05:22.991Z,6.35
2019-02-21T09:06:24.762Z,6.45
2019-02-21T09:07:23.494Z,6.45
2019-02-21T09:08:33.162Z,6.51
2019-02-21T09:09:23.888Z,6.60
2019-02-21T09:10:24.122Z,6.54
2019-02-21T09:11:24.342Z,6.62
2019-02-21T09:12:24.564Z,6.35
2019-02-21T09:13:24.791Z,6.39
2019-02-21T09:14:25.017Z,6.52
2019-02-21T09:15:25.241Z,6.64
2019-02-21T09:16:25.462Z,6.67
2019-02-21T09:17:25.689Z,6.70
2019-02-21T09:18:25.940Z,6.82
2019-02-21T09:19:26.136Z,6.79
2019-02-21T09:20:26.360Z,6.87
2019-02-21T09:21:26.587Z,7.05
2019-02-21T09:22:26.809Z,7.02
2019-02-21T09:23:27.034Z,6.96
2019-02-21T09:24:38.447Z,7.02
2019-02-21T09:25:27.482Z,6.95
2019-02-21T09:26:27.705Z,6.93
2019-02-21T09:27:27.929Z,7.11
2019-02-21T09:28:28.151Z,7.20
2019-02-21T09:29:28.383Z,7.21
2019-02-21T09:30:28.600Z,7.25
2019-02-21T09:31:28.827Z,7.29
2019-02-21T09:32:29.049Z,7.29
2019-02-21T09:33:29.273Z,7.31
2019-02-21T09:34:29.505Z,7.32
2019-02-21T09:35:29.723Z,7.36
2019-02-21T09:36:29.949Z,7.39
2019-02-21T09:37:30.174Z,7.32
2019-02-21T09:38:30.398Z,7.31
2019-02-21T09:39:30.623Z,7.33
2019-02-21T09:40:30.846Z,7.21
2019-02-21T09:41:31.072Z,7.17
2019-02-21T09:42:31.299Z,7.13
2019-02-21T09:43:31.521Z,7.05
2019-02-21T09:44:31.748Z,6.97
2019-02-21T09:45:32.831Z,7.10
2019-02-21T09:46:32.199Z,7.13
2019-02-21T09:47:32.432Z,7.21
2019-02-21T09:48:32.645Z,7.15
2019-02-21T09:49:32.873Z,7.32
2019-02-21T09:50:33.098Z,7.43
2019-02-21T09:51:33.333Z,7.69
2019-02-21T09:52:33.541Z,7.60
2019-02-21T09:53:33.767Z,7.76
2019-02-21T09:54:33.997Z,7.80
2019-02-21T09:55:34.264Z,7.90
2019-02-21T09:56:34.487Z,8.23
2019-02-21T09:57:34.711Z,8.45
2019-02-21T09:58:34.936Z,8.64
2019-02-21T09:59:35.195Z,8.70
2019-02-21T10:00:36.061Z,8.91
2019-02-21T10:01:35.612Z,8.91
2019-02-21T10:02:35.838Z,9.04
2019-02-21T10:03:36.061Z,9.31
2019-02-21T10:04:36.284Z,9.34
2019-02-21T10:05:36.509Z,9.39
2019-02-21T10:06:36.733Z,9.51
2019-02-21T10:07:37.232Z,9.62
2019-02-21T10:08:37.187Z,9.84
2019-02-21T10:09:37.409Z,9.97
2019-02-21T10:10:37.632Z,10.05
2019-02-21T10:11:37.857Z,10.12
2019-02-21T10:12:38.085Z,10.30
2019-02-21T10:13:38.326Z,10.33
2019-02-21T10:14:38.529Z,10.30
2019-02-21T10:15:38.754Z,10.38
2019-02-21T10:16:38.981Z,10.41
2019-02-21T10:17:39.211Z,10.44
2019-02-21T10:18:39.432Z,10.56
2019-02-21T10:19:39.661Z,10.57
2019-02-21T10:20:39.882Z,10.59
2019-02-21T10:21:40.109Z,10.75
2019-02-21T10:22:40.342Z,10.71
2019-02-21T10:23:42.191Z,10.86
2019-02-21T10:24:40.782Z,10.87
2019-02-21T10:25:41.008Z,10.93
2019-02-21T10:26:41.232Z,10.90
2019-02-21T10:27:41.464Z,10.90
2019-02-21T10:28:41.719Z,10.97
2019-02-21T10:29:41.919Z,11.00
2019-02-21T10:30:42.143Z,11.10
2019-02-21T10:31:42.368Z,11.11
2019-02-21T10:32:42.593Z,11.04
2019-02-21T10:33:46.894Z,11.05
2019-02-21T10:34:43.589Z,11.14
2019-02-21T10:35:43.271Z,10.94
2019-02-21T10:36:43.498Z,11.17
2019-02-21T10:37:43.724Z,11.25
2019-02-21T10:38:43.951Z,11.27
2019-02-21T10:39:44.177Z,11.30
2019-02-21T10:40:44.441Z,11.10
2019-02-21T10:41:44.634Z,11.18
2019-02-21T10:42:44.862Z,11.18
2019-02-21T10:43:45.089Z,11.27
2019-02-21T10:44:45.309Z,11.43
2019-02-21T10:45:48.066Z,11.30
2019-02-21T10:46:45.762Z,11.30
2019-02-21T10:47:45.989Z,11.17
2019-02-21T10:48:46.216Z,11.12
2019-02-21T10:49:46.443Z,11.17
2019-02-21T10:50:46.668Z,11.37
2019-02-21T10:51:46.895Z,11.47
2019-02-21T10:52:47.120Z,11.41
2019-02-21T10:53:47.345Z,11.47
2019-02-21T10:54:47.573Z,11.41
2019-02-21T10:55:48.147Z,11.45
2019-02-21T10:56:48.024Z,11.44
2019-02-21T10:57:48.250Z,11.43
2019-02-21T10:58:48.475Z,11.50
2019-02-21T10:59:48.704Z,11.44
2019-02-21T11:00:48.928Z,11.43
2019-02-21T11:01:49.152Z,11.32
2019-02-21T11:02:49.379Z,11.32
2019-02-21T11:03:49.607Z,11.40
2019-02-21T11:04:54.702Z,11.41
2019-02-21T11:05:50.060Z,11.37
2019-02-21T11:06:50.290Z,11.35
2019-02-21T11:07:50.518Z,11.41
2019-02-21T11:08:50.745Z,11.48
2019-02-21T11:09:50.975Z,11.43
2019-02-21T11:10:51.199Z,11.41
2019-02-21T11:11:51.424Z,11.44
2019-02-21T11:12:51.651Z,11.41
2019-02-21T11:13:51.877Z,11.47
2019-02-21T11:14:52.107Z,11.52
2019-02-21T11:15:52.332Z,11.54
2019-02-21T11:16:52.557Z,11.57
2019-02-21T11:17:52.782Z,11.63
2019-02-21T11:18:53.007Z,11.73
2019-02-21T11:19:53.232Z,11.88
2019-02-21T11:20:53.458Z,11.99
2019-02-21T11:21:53.687Z,12.02
2019-02-21T11:22:53.936Z,12.07
2019-02-21T11:23:54.136Z,12.15
2019-02-21T11:24:54.368Z,12.22
2019-02-21T11:25:54.587Z,12.27
2019-02-21T11:26:54.814Z,12.28
2019-02-21T11:27:55.040Z,12.46
2019-02-21T11:28:55.264Z,12.42
2019-02-21T11:29:55.490Z,12.64
2019-02-21T11:30:55.715Z,12.64
2019-02-21T11:31:55.945Z,12.75
2019-02-21T11:32:56.168Z,12.85
2019-02-21T11:33:56.395Z,12.91
2019-02-21T11:35:05.759Z,13.05
2019-02-21T11:35:56.846Z,13.13
2019-02-21T11:36:57.073Z,13.22
2019-02-21T11:37:57.299Z,13.23
2019-02-21T11:38:57.526Z,13.39
2019-02-21T11:39:57.750Z,13.42
2019-02-21T11:40:58.005Z,13.59
2019-02-21T11:41:58.235Z,13.60
2019-02-21T11:42:58.462Z,13.62
2019-02-21T11:43:58.686Z,13.70
2019-02-21T11:44:58.914Z,13.72
2019-02-21T11:45:59.161Z,13.78
2019-02-21T11:46:59.375Z,13.75
2019-02-21T11:47:59.602Z,13.68
2019-02-21T11:48:59.833Z,13.68
2019-02-21T11:50:00.105Z,13.79
2019-02-21T11:51:00.283Z,13.75
2019-02-21T11:52:09.801Z,13.90
2019-02-21T11:53:00.737Z,13.87
2019-02-21T11:54:00.964Z,14.03
2019-02-21T11:55:01.188Z,14.07
2019-02-21T11:56:01.415Z,14.25
2019-02-21T11:57:01.642Z,14.23
2019-02-21T11:58:01.869Z,14.28
2019-02-21T11:59:02.098Z,14.29
2019-02-21T12:00:02.323Z,14.26
2019-02-21T12:01:02.551Z,14.14
2019-02-21T12:02:02.777Z,14.10
2019-02-21T12:03:03.004Z,14.17
2019-02-21T12:04:03.229Z,14.07
2019-02-21T12:05:03.461Z,13.90
2019-02-21T12:06:03.680Z,13.95
2019-02-21T12:07:03.903Z,13.95
2019-02-21T12:08:04.128Z,13.90
2019-02-21T12:09:04.351Z,13.81
2019-02-21T12:10:04.577Z,13.87
2019-02-21T12:11:04.793Z,13.79
2019-02-21T12:12:05.023Z,13.78
2019-02-21T12:13:05.250Z,13.85
2019-02-21T12:14:05.474Z,13.83
2019-02-21T12:15:05.697Z,13.86
2019-02-21T12:16:05.926Z,13.72
2019-02-21T12:17:06.155Z,13.75
2019-02-21T12:18:06.382Z,13.79
2019-02-21T12:19:06.606Z,13.67
2019-02-21T12:20:06.831Z,13.53
2019-02-21T12:21:07.059Z,13.57
2019-02-21T12:22:07.285Z,13.49
2019-02-21T12:23:07.512Z,13.46
2019-02-21T12:24:07.738Z,13.52
2019-02-21T12:25:07.967Z,13.47
2019-02-21T12:26:08.193Z,13.41
2019-02-21T12:27:08.412Z,13.46
2019-02-21T12:28:08.638Z,13.39
2019-02-21T12:29:08.863Z,13.31
2019-02-21T12:30:09.142Z,13.22
2019-02-21T12:31:09.325Z,13.31
2019-02-21T12:32:09.557Z,13.27
2019-02-21T12:33:09.783Z,13.18
2019-02-21T12:34:10.013Z,13.05
2019-02-21T12:35:10.241Z,13.04
2019-02-21T12:36:10.466Z,12.93
2019-02-21T12:37:10.687Z,13.04
2019-02-21T12:38:10.920Z,12.86
2019-02-21T12:39:11.150Z,12.94
2019-02-21T12:40:11.373Z,12.94
2019-02-21T12:41:11.601Z,13.04
2019-02-21T12:42:11.831Z,13.09
2019-02-21T12:43:12.054Z,13.05
2019-02-21T12:44:12.281Z,13.12
2019-02-21T12:45:12.508Z,13.19
2019-02-21T12:46:12.733Z,13.25
2019-02-21T12:47:12.961Z,13.23
2019-02-21T12:48:13.180Z,13.31
2019-02-21T12:49:13.404Z,13.35
2019-02-21T12:50:13.633Z,13.44
2019-02-21T12:51:13.864Z,13.52
2019-02-21T12:52:14.124Z,13.54
2019-02-21T12:53:14.310Z,13.54
2019-02-21T12:54:14.540Z,13.70
2019-02-21T12:55:26.401Z,13.68
2019-02-21T12:56:14.989Z,13.62
2019-02-21T12:57:15.207Z,13.52
2019-02-21T12:58:15.433Z,13.46
2019-02-21T12:59:15.661Z,13.49
2019-02-21T13:00:16.191Z,13.57
2019-02-21T13:01:16.105Z,13.62
2019-02-21T13:02:16.333Z,13.68
2019-02-21T13:03:16.562Z,13.75
2019-02-21T13:04:16.788Z,13.62
2019-02-21T13:05:17.036Z,13.65
2019-02-21T13:06:17.255Z,13.71
2019-02-21T13:07:17.483Z,13.75
2019-02-21T13:08:17.757Z,13.68
2019-02-21T13:09:17.931Z,13.68
2019-02-21T13:10:18.170Z,13.59
2019-02-21T13:11:18.385Z,13.65
2019-02-21T13:12:18.630Z,13.68
2019-02-21T13:13:18.840Z,13.62
2019-02-21T13:14:19.061Z,13.63
2019-02-21T13:15:19.286Z,13.68